createdAt,value
2023-01-26T00:04:27.314Z,77.91
2023-01-26T00:09:29.791Z,77.50
2023-01-26T00:14:49.835Z,76.75
2023-01-26T00:19:57.173Z,77.43
2023-01-26T00:24:58.919Z,77.90
2023-01-26T00:30:00.723Z,77.84
2023-01-26T00:35:03.245Z,77.92
2023-01-26T00:40:05.691Z,77.92
2023-01-26T00:45:08.045Z,78.11
2023-01-26T00:50:11.267Z,77.60
2023-01-26T00:55:13.413Z,77.53
2023-01-26T01:00:17.353Z,78.01
2023-01-26T01:05:19.099Z,77.71
2023-01-26T01:10:22.235Z,78.20
2023-01-26T01:15:25.104Z,78.19
2023-01-26T01:20:26.790Z,78.21
2023-01-26T01:25:29.270Z,78.21
2023-01-26T01:30:33.181Z,78.50
2023-01-26T01:35:35.851Z,78.71
2023-01-26T01:40:43.557Z,78.81
2023-01-26T01:45:47.577Z,78.38
2023-01-26T01:50:52.216Z,78.74
2023-01-26T01:55:56.850Z,78.76
2023-01-26T02:00:59.162Z,78.67
2023-01-26T02:06:13.492Z,78.72
2023-01-26T02:11:19.398Z,78.63
2023-01-26T02:16:21.260Z,78.83
2023-01-26T02:21:24.321Z,78.85
2023-01-26T02:26:28.819Z,79.25
2023-01-26T02:31:31.400Z,79.38
2023-01-26T02:36:34.469Z,79.05
2023-01-26T02:41:55.125Z,78.46
2023-01-26T02:46:57.589Z,78.57
2023-01-26T02:51:59.644Z,78.35
2023-01-26T02:57:02.023Z,78.85
2023-01-26T03:02:04.124Z,78.77
2023-01-26T03:07:05.887Z,79.05
2023-01-26T03:12:07.704Z,79.25
2023-01-26T03:17:09.490Z,78.62
2023-01-26T03:22:30.518Z,79.07
2023-01-26T03:27:43.826Z,79.20
2023-01-26T03:32:46.582Z,79.19
2023-01-26T03:37:54.664Z,79.25
2023-01-26T03:43:30.173Z,79.12
2023-01-26T03:48:50.742Z,79.06
2023-01-26T03:54:11.576Z,79.77
2023-01-26T03:59:15.468Z,79.50
2023-01-26T04:04:37.308Z,79.69
2023-01-26T04:09:41.920Z,79.69
2023-01-26T04:15:03.030Z,79.75
2023-01-26T04:20:25.242Z,79.72
2023-01-26T04:25:27.320Z,79.66
2023-01-26T04:30:31.939Z,79.91
2023-01-26T04:35:34.084Z,79.88
2023-01-26T04:40:35.990Z,79.89
2023-01-26T04:45:37.785Z,79.67
2023-01-26T04:50:39.627Z,79.59
2023-01-26T04:55:42.054Z,79.95
2023-01-26T05:00:45.618Z,79.89
2023-01-26T05:05:52.853Z,80.15
2023-01-26T05:10:56.390Z,79.86
2023-01-26T05:16:05.546Z,79.84
2023-01-26T05:21:28.290Z,80.01
2023-01-26T05:26:30.869Z,79.88
2023-01-26T05:31:38.896Z,80.29
2023-01-26T05:36:41.370Z,79.88
2023-01-26T05:41:43.605Z,79.48
2023-01-26T05:47:09.334Z,79.37
2023-01-26T05:52:16.916Z,79.32
2023-01-26T05:57:19.140Z,78.93
2023-01-26T06:02:28.024Z,78.97
2023-01-26T06:07:30.512Z,78.92
2023-01-26T06:12:52.533Z,79.12
2023-01-26T06:18:12.589Z,79.01
2023-01-26T06:23:17.301Z,79.01
2023-01-26T06:28:20.796Z,79.20
2023-01-26T06:33:22.855Z,79.25
2023-01-26T06:38:25.787Z,79.14
2023-01-26T06:43:30.654Z,79.27
2023-01-26T06:48:34.889Z,79.06
2023-01-26T06:53:42.492Z,78.90
2023-01-26T06:59:07.587Z,79.22
2023-01-26T07:04:27.567Z,79.03
2023-01-26T07:09:30.166Z,79.34
2023-01-26T07:14:32.833Z,79.05
2023-01-26T07:19:34.553Z,78.90
2023-01-26T07:24:36.277Z,78.90
2023-01-26T07:29:37.954Z,78.59
2023-01-26T07:34:39.639Z,78.13
2023-01-26T07:39:41.415Z,78.22
2023-01-26T07:44:43.155Z,78.23
2023-01-26T07:49:45.206Z,78.25
2023-01-26T07:54:46.871Z,78.45
2023-01-26T07:59:48.550Z,77.69
2023-01-26T08:04:53.948Z,77.76
2023-01-26T08:09:55.858Z,77.33
2023-01-26T08:14:57.747Z,77.24
2023-01-26T08:19:59.643Z,77.00
2023-01-26T08:25:01.345Z,76.62
2023-01-26T08:30:03.253Z,75.99
2023-01-26T08:35:05.702Z,75.70
2023-01-26T08:40:09.128Z,76.05
2023-01-26T08:45:11.536Z,75.62
2023-01-26T08:50:13.602Z,75.67
2023-01-26T08:55:15.693Z,75.20
2023-01-26T09:00:18.042Z,75.05
2023-01-26T09:05:19.772Z,74.66
2023-01-26T09:10:21.473Z,74.73
2023-01-26T09:15:23.677Z,74.36
2023-01-26T09:20:25.406Z,73.63
2023-01-26T09:25:27.226Z,73.60
2023-01-26T09:30:29.066Z,74.07
2023-01-26T09:35:31.794Z,73.75
2023-01-26T09:41:01.543Z,73.68
2023-01-26T09:46:15.211Z,73.22
2023-01-26T09:51:23.471Z,73.29
2023-01-26T09:56:29.108Z,73.06
2023-01-26T10:01:40.766Z,72.95
2023-01-26T10:06:44.009Z,73.27
2023-01-26T10:12:28.323Z,72.64
2023-01-26T10:17:39.909Z,72.54
2023-01-26T10:22:48.445Z,72.36
2023-01-26T10:27:51.220Z,72.49
2023-01-26T10:32:52.994Z,72.21
2023-01-26T10:37:56.207Z,72.02
2023-01-26T10:43:00.748Z,71.91
2023-01-26T10:48:25.215Z,71.90
2023-01-26T10:53:29.847Z,71.51
2023-01-26T10:58:42.706Z,71.60
2023-01-26T11:04:16.774Z,71.66
2023-01-26T11:09:33.838Z,72.16
2023-01-26T11:14:38.514Z,72.54
2023-01-26T11:20:01.692Z,71.88
2023-01-26T11:25:17.594Z,71.86
2023-01-26T11:30:31.043Z,72.02
2023-01-26T11:35:51.831Z,72.00
2023-01-26T11:40:59.355Z,71.45
2023-01-26T11:46:25.948Z,71.37
2023-01-26T11:51:56.954Z,71.57
2023-01-26T11:57:36.024Z,71.88
2023-01-26T12:02:38.650Z,72.22
2023-01-26T12:07:56.263Z,71.44
2023-01-26T12:13:13.789Z,71.37
2023-01-26T12:18:27.931Z,71.79
2023-01-26T12:23:50.655Z,71.56
2023-01-26T12:29:01.876Z,71.82
2023-01-26T12:34:03.572Z,72.12
2023-01-26T12:39:39.358Z,72.49
2023-01-26T12:44:50.504Z,72.29
2023-01-26T12:50:04.819Z,72.64
2023-01-26T12:55:18.295Z,72.94
2023-01-26T13:00:25.622Z,72.61
2023-01-26T13:05:31.645Z,72.38
2023-01-26T13:10:49.963Z,72.61
2023-01-26T13:16:17.793Z,73.04
2023-01-26T13:21:38.131Z,73.19
2023-01-26T13:26:51.576Z,73.28
2023-01-26T13:31:55.131Z,73.58
2023-01-26T13:37:08.918Z,73.42
2023-01-26T13:42:27.586Z,73.42
2023-01-26T13:47:37.902Z,73.45
2023-01-26T13:52:42.459Z,72.87
2023-01-26T13:57:44.344Z,72.76
2023-01-26T14:02:49.863Z,72.74
2023-01-26T14:07:52.118Z,73.03
2023-01-26T14:12:58.888Z,72.81
2023-01-26T14:18:05.159Z,72.68
2023-01-26T14:23:06.911Z,73.09
2023-01-26T14:28:15.939Z,73.12
2023-01-26T14:33:18.697Z,73.10
2023-01-26T14:38:21.163Z,73.44
2023-01-26T14:43:23.860Z,74.27
2023-01-26T14:48:35.076Z,74.30
2023-01-26T14:53:37.299Z,73.79
2023-01-26T14:58:39.549Z,73.64
2023-01-26T15:03:41.340Z,74.02
2023-01-26T15:08:53.897Z,73.81
2023-01-26T15:13:56.322Z,73.84
2023-01-26T15:19:04.898Z,73.94
2023-01-26T15:24:13.296Z,73.63
2023-01-26T15:29:25.116Z,73.66
2023-01-26T15:34:31.632Z,73.44
2023-01-26T15:39:33.668Z,72.91
2023-01-26T15:44:35.355Z,73.32
2023-01-26T15:49:37.124Z,73.38
2023-01-26T15:54:38.886Z,73.40
2023-01-26T15:59:40.858Z,73.41
2023-01-26T16:04:43.564Z,73.69
2023-01-26T16:09:45.414Z,73.62
2023-01-26T16:14:47.146Z,73.73
2023-01-26T16:19:48.851Z,74.37
2023-01-26T16:24:50.515Z,74.45
2023-01-26T16:29:52.201Z,74.07
2023-01-26T16:34:53.999Z,74.13
2023-01-26T16:39:55.715Z,74.54
2023-01-26T16:44:57.749Z,74.97
2023-01-26T16:49:59.827Z,74.95
2023-01-26T16:55:01.555Z,74.61
2023-01-26T17:00:04.492Z,74.69
2023-01-26T17:05:06.783Z,74.76
2023-01-26T17:10:10.068Z,75.23
2023-01-26T17:15:12.551Z,74.88
2023-01-26T17:20:19.355Z,75.27
2023-01-26T17:25:21.484Z,75.05
2023-01-26T17:30:23.740Z,75.10
2023-01-26T17:35:25.576Z,75.50
2023-01-26T17:40:27.516Z,75.34
2023-01-26T17:45:29.357Z,75.48
2023-01-26T17:50:31.144Z,74.28
2023-01-26T17:55:35.917Z,74.31
2023-01-26T18:00:38.286Z,74.57
2023-01-26T18:05:40.102Z,74.02
2023-01-26T18:10:42.063Z,74.52
2023-01-26T18:15:45.565Z,74.71
2023-01-26T18:20:47.662Z,74.73
2023-01-26T18:26:08.266Z,74.54
2023-01-26T18:31:31.820Z,74.56
2023-01-26T18:36:33.667Z,74.50
2023-01-26T18:41:35.507Z,74.85
2023-01-26T18:46:37.888Z,75.04
2023-01-26T18:51:39.694Z,74.57
2023-01-26T18:56:41.793Z,74.81
2023-01-26T19:01:43.853Z,74.80
2023-01-26T19:06:46.876Z,75.25
2023-01-26T19:11:49.062Z,74.96
2023-01-26T19:16:51.114Z,75.27
2023-01-26T19:21:53.305Z,75.40
2023-01-26T19:26:55.015Z,75.64
2023-01-26T19:31:56.797Z,75.97
2023-01-26T19:36:58.782Z,75.78
2023-01-26T19:42:00.853Z,75.52
2023-01-26T19:47:02.734Z,75.78
2023-01-26T19:52:04.721Z,75.63
2023-01-26T19:57:06.609Z,75.46
2023-01-26T20:02:10.274Z,75.38
2023-01-26T20:07:12.197Z,75.71
2023-01-26T20:12:14.177Z,75.52
2023-01-26T20:17:16.877Z,75.92
2023-01-26T20:22:18.856Z,75.64
2023-01-26T20:27:20.844Z,75.70
2023-01-26T20:32:22.688Z,75.81
2023-01-26T20:37:24.605Z,75.71
2023-01-26T20:42:26.597Z,75.70
2023-01-26T20:47:34.088Z,75.66
2023-01-26T20:52:36.997Z,75.76
2023-01-26T20:57:39.096Z,75.19
2023-01-26T21:02:41.066Z,75.29
2023-01-26T21:07:42.778Z,75.32
2023-01-26T21:12:45.747Z,75.16
2023-01-26T21:17:47.473Z,75.32
2023-01-26T21:22:49.381Z,75.55
2023-01-26T21:27:52.713Z,75.80
2023-01-26T21:32:54.797Z,75.79
2023-01-26T21:37:56.778Z,75.94
2023-01-26T21:42:58.690Z,75.99
2023-01-26T21:48:19.274Z,76.18
2023-01-26T21:53:20.959Z,76.10
2023-01-26T21:58:41.555Z,76.24
2023-01-26T22:03:43.305Z,76.37
2023-01-26T22:08:45.399Z,76.37
2023-01-26T22:13:55.405Z,76.65
2023-01-26T22:18:57.688Z,76.61
2023-01-26T22:24:00.017Z,76.35
2023-01-26T22:29:03.575Z,76.17
2023-01-26T22:34:05.478Z,76.00
2023-01-26T22:39:07.985Z,76.15
2023-01-26T22:44:09.948Z,76.55
2023-01-26T22:49:11.743Z,76.57
2023-01-26T22:54:13.521Z,76.56
2023-01-26T22:59:15.341Z,76.83
2023-01-26T23:04:17.346Z,76.85
2023-01-26T23:09:19.287Z,77.03
2023-01-26T23:14:36.688Z,77.24
2023-01-26T23:19:38.466Z,77.17
2023-01-26T23:24:40.259Z,77.16
2023-01-26T23:29:42.196Z,77.00
2023-01-26T23:34:43.911Z,76.92
2023-01-26T23:39:45.802Z,76.92
2023-01-26T23:44:47.646Z,76.93
2023-01-26T23:49:49.582Z,76.49
2023-01-26T23:54:51.425Z,76.51
2023-01-26T23:59:53.148Z,76.32
